sensor_id;sensor_type;location;lat;lon;timestamp;P1;durP1;ratioP1;P2;durP2;ratioP2
66095;SDS011;53861;53.422;14.530;2024-02-21T00:00:54;25.63;;;4.88;;
66095;SDS011;53861;53.422;14.530;2024-02-21T00:03:23;29.65;;;5.57;;
66095;SDS011;53861;53.422;14.530;2024-02-21T00:05:50;26.63;;;4.55;;
66095;SDS011;53861;53.422;14.530;2024-02-21T00:08:18;24.85;;;5.85;;
66095;SDS011;53861;53.422;14.530;2024-02-21T00:10:45;27.05;;;4.57;;
66095;SDS011;53861;53.422;14.530;2024-02-21T00:13:12;35.25;;;6.15;;
66095;SDS011;53861;53.422;14.530;2024-02-21T00:15:39;25.05;;;5.25;;
66095;SDS011;53861;53.422;14.530;2024-02-21T00:18:06;31.45;;;6.55;;
66095;SDS011;53861;53.422;14.530;2024-02-21T00:20:35;27.65;;;5.97;;
66095;SDS011;53861;53.422;14.530;2024-02-21T00:23:03;28.60;;;5.15;;
66095;SDS011;53861;53.422;14.530;2024-02-21T00:25:30;23.85;;;5.32;;
66095;SDS011;53861;53.422;14.530;2024-02-21T00:27:58;29.85;;;5.68;;
66095;SDS011;53861;53.422;14.530;2024-02-21T00:30:25;33.08;;;6.07;;
66095;SDS011;53861;53.422;14.530;2024-02-21T00:32:53;26.45;;;5.05;;
66095;SDS011;53861;53.422;14.530;2024-02-21T00:35:20;26.40;;;5.18;;
66095;SDS011;53861;53.422;14.530;2024-02-21T00:37:49;32.55;;;6.38;;
66095;SDS011;53861;53.422;14.530;2024-02-21T00:40:16;25.67;;;5.15;;
66095;SDS011;53861;53.422;14.530;2024-02-21T00:42:46;26.65;;;5.65;;
66095;SDS011;53861;53.422;14.530;2024-02-21T00:45:13;22.73;;;5.57;;
66095;SDS011;53861;53.422;14.530;2024-02-21T00:47:41;26.90;;;5.90;;
66095;SDS011;53861;53.422;14.530;2024-02-21T00:50:08;24.70;;;5.85;;
66095;SDS011;53861;53.422;14.530;2024-02-21T00:52:36;26.48;;;5.35;;
66095;SDS011;53861;53.422;14.530;2024-02-21T00:55:05;36.17;;;5.55;;
66095;SDS011;53861;53.422;14.530;2024-02-21T00:57:33;25.33;;;6.55;;
66095;SDS011;53861;53.422;14.530;2024-02-21T01:00:01;33.30;;;5.88;;
66095;SDS011;53861;53.422;14.530;2024-02-21T01:02:28;29.15;;;5.57;;
66095;SDS011;53861;53.422;14.530;2024-02-21T01:04:56;24.17;;;5.63;;
66095;SDS011;53861;53.422;14.530;2024-02-21T01:07:24;24.88;;;6.38;;
66095;SDS011;53861;53.422;14.530;2024-02-21T01:09:51;25.70;;;5.90;;
66095;SDS011;53861;53.422;14.530;2024-02-21T01:12:20;37.33;;;7.10;;
66095;SDS011;53861;53.422;14.530;2024-02-21T01:14:47;41.58;;;7.55;;
66095;SDS011;53861;53.422;14.530;2024-02-21T01:17:15;43.88;;;7.10;;
66095;SDS011;53861;53.422;14.530;2024-02-21T01:19:42;34.13;;;6.35;;
66095;SDS011;53861;53.422;14.530;2024-02-21T01:22:09;35.95;;;7.43;;
66095;SDS011;53861;53.422;14.530;2024-02-21T01:24:37;33.58;;;7.97;;
66095;SDS011;53861;53.422;14.530;2024-02-21T01:27:04;43.17;;;8.05;;
66095;SDS011;53861;53.422;14.530;2024-02-21T01:29:32;31.88;;;7.35;;
66095;SDS011;53861;53.422;14.530;2024-02-21T01:32:00;28.08;;;6.82;;
66095;SDS011;53861;53.422;14.530;2024-02-21T01:34:27;29.58;;;8.10;;
66095;SDS011;53861;53.422;14.530;2024-02-21T01:36:54;33.22;;;8.30;;
66095;SDS011;53861;53.422;14.530;2024-02-21T01:39:21;33.22;;;7.68;;
66095;SDS011;53861;53.422;14.530;2024-02-21T01:41:49;34.08;;;7.75;;
66095;SDS011;53861;53.422;14.530;2024-02-21T01:44:16;31.15;;;6.88;;
66095;SDS011;53861;53.422;14.530;2024-02-21T01:46:45;35.60;;;8.00;;
66095;SDS011;53861;53.422;14.530;2024-02-21T01:49:12;34.17;;;7.35;;
66095;SDS011;53861;53.422;14.530;2024-02-21T01:51:39;32.20;;;8.02;;
66095;SDS011;53861;53.422;14.530;2024-02-21T01:54:07;31.67;;;8.65;;
66095;SDS011;53861;53.422;14.530;2024-02-21T01:56:35;40.35;;;9.32;;
66095;SDS011;53861;53.422;14.530;2024-02-21T01:59:02;37.42;;;8.25;;
66095;SDS011;53861;53.422;14.530;2024-02-21T02:01:29;24.13;;;8.32;;
66095;SDS011;53861;53.422;14.530;2024-02-21T02:03:58;31.15;;;8.55;;
66095;SDS011;53861;53.422;14.530;2024-02-21T02:06:26;43.95;;;9.48;;
66095;SDS011;53861;53.422;14.530;2024-02-21T02:08:53;41.25;;;9.35;;
66095;SDS011;53861;53.422;14.530;2024-02-21T02:11:21;36.67;;;9.48;;
66095;SDS011;53861;53.422;14.530;2024-02-21T02:13:48;38.15;;;8.85;;
66095;SDS011;53861;53.422;14.530;2024-02-21T02:16:15;43.83;;;9.23;;
66095;SDS011;53861;53.422;14.530;2024-02-21T02:18:43;38.45;;;9.15;;
66095;SDS011;53861;53.422;14.530;2024-02-21T02:21:13;42.42;;;10.80;;
66095;SDS011;53861;53.422;14.530;2024-02-21T02:23:51;45.30;;;9.63;;
66095;SDS011;53861;53.422;14.530;2024-02-21T02:26:18;45.80;;;10.23;;
66095;SDS011;53861;53.422;14.530;2024-02-21T02:28:46;38.80;;;9.55;;
66095;SDS011;53861;53.422;14.530;2024-02-21T02:31:13;44.88;;;9.27;;
66095;SDS011;53861;53.422;14.530;2024-02-21T02:33:42;32.80;;;9.38;;
66095;SDS011;53861;53.422;14.530;2024-02-21T02:36:09;33.03;;;9.98;;
66095;SDS011;53861;53.422;14.530;2024-02-21T02:38:37;36.78;;;9.80;;
66095;SDS011;53861;53.422;14.530;2024-02-21T02:41:05;37.95;;;9.18;;
66095;SDS011;53861;53.422;14.530;2024-02-21T02:43:33;34.80;;;9.55;;
66095;SDS011;53861;53.422;14.530;2024-02-21T02:46:00;38.55;;;9.77;;
66095;SDS011;53861;53.422;14.530;2024-02-21T02:48:27;36.28;;;9.68;;
66095;SDS011;53861;53.422;14.530;2024-02-21T02:50:54;37.25;;;10.63;;
66095;SDS011;53861;53.422;14.530;2024-02-21T02:53:22;35.88;;;10.95;;
66095;SDS011;53861;53.422;14.530;2024-02-21T02:55:49;36.42;;;8.70;;
66095;SDS011;53861;53.422;14.530;2024-02-21T02:58:17;41.05;;;10.35;;
66095;SDS011;53861;53.422;14.530;2024-02-21T03:00:45;49.58;;;11.43;;
66095;SDS011;53861;53.422;14.530;2024-02-21T03:03:12;36.05;;;10.88;;
66095;SDS011;53861;53.422;14.530;2024-02-21T03:05:39;39.13;;;10.05;;
66095;SDS011;53861;53.422;14.530;2024-02-21T03:08:06;41.17;;;10.95;;
66095;SDS011;53861;53.422;14.530;2024-02-21T03:10:34;43.70;;;8.82;;
66095;SDS011;53861;53.422;14.530;2024-02-21T03:13:01;43.50;;;10.77;;
66095;SDS011;53861;53.422;14.530;2024-02-21T03:15:30;44.67;;;11.30;;
66095;SDS011;53861;53.422;14.530;2024-02-21T03:17:57;40.00;;;11.68;;
66095;SDS011;53861;53.422;14.530;2024-02-21T03:20:25;50.45;;;12.50;;
66095;SDS011;53861;53.422;14.530;2024-02-21T03:22:52;47.85;;;11.65;;
66095;SDS011;53861;53.422;14.530;2024-02-21T03:25:19;50.25;;;12.27;;
66095;SDS011;53861;53.422;14.530;2024-02-21T03:27:46;31.08;;;9.68;;
66095;SDS011;53861;53.422;14.530;2024-02-21T03:30:14;29.17;;;10.05;;
66095;SDS011;53861;53.422;14.530;2024-02-21T03:32:43;43.78;;;12.57;;
66095;SDS011;53861;53.422;14.530;2024-02-21T03:35:10;45.47;;;12.43;;
66095;SDS011;53861;53.422;14.530;2024-02-21T03:37:37;44.63;;;11.50;;
66095;SDS011;53861;53.422;14.530;2024-02-21T03:40:06;32.85;;;8.52;;
66095;SDS011;53861;53.422;14.530;2024-02-21T03:42:35;41.42;;;10.98;;
66095;SDS011;53861;53.422;14.530;2024-02-21T03:45:02;39.95;;;10.57;;
66095;SDS011;53861;53.422;14.530;2024-02-21T03:47:30;40.20;;;11.38;;
66095;SDS011;53861;53.422;14.530;2024-02-21T03:49:59;44.95;;;11.27;;
66095;SDS011;53861;53.422;14.530;2024-02-21T03:52:26;43.75;;;11.63;;
66095;SDS011;53861;53.422;14.530;2024-02-21T03:54:53;47.83;;;12.32;;
66095;SDS011;53861;53.422;14.530;2024-02-21T03:57:21;47.50;;;12.32;;
66095;SDS011;53861;53.422;14.530;2024-02-21T03:59:50;46.42;;;11.45;;
66095;SDS011;53861;53.422;14.530;2024-02-21T04:02:18;22.65;;;8.15;;
66095;SDS011;53861;53.422;14.530;2024-02-21T04:04:45;42.60;;;13.38;;
66095;SDS011;53861;53.422;14.530;2024-02-21T04:07:15;40.72;;;11.10;;
66095;SDS011;53861;53.422;14.530;2024-02-21T04:09:42;46.75;;;12.70;;
66095;SDS011;53861;53.422;14.530;2024-02-21T04:12:09;45.83;;;10.77;;
66095;SDS011;53861;53.422;14.530;2024-02-21T04:14:36;46.15;;;12.80;;
66095;SDS011;53861;53.422;14.530;2024-02-21T04:17:05;42.03;;;11.63;;
66095;SDS011;53861;53.422;14.530;2024-02-21T04:19:33;39.70;;;11.10;;
66095;SDS011;53861;53.422;14.530;2024-02-21T04:22:00;25.65;;;7.88;;
66095;SDS011;53861;53.422;14.530;2024-02-21T04:24:29;44.55;;;12.55;;
66095;SDS011;53861;53.422;14.530;2024-02-21T04:26:56;37.88;;;11.38;;
66095;SDS011;53861;53.422;14.530;2024-02-21T04:29:23;33.67;;;10.25;;
66095;SDS011;53861;53.422;14.530;2024-02-21T04:31:50;25.55;;;8.35;;
66095;SDS011;53861;53.422;14.530;2024-02-21T04:34:18;32.03;;;10.10;;
66095;SDS011;53861;53.422;14.530;2024-02-21T04:36:45;35.70;;;9.25;;
66095;SDS011;53861;53.422;14.530;2024-02-21T04:39:12;42.03;;;11.18;;
66095;SDS011;53861;53.422;14.530;2024-02-21T04:41:41;41.95;;;10.27;;
66095;SDS011;53861;53.422;14.530;2024-02-21T04:44:08;37.22;;;11.13;;
66095;SDS011;53861;53.422;14.530;2024-02-21T04:46:35;44.10;;;11.52;;
66095;SDS011;53861;53.422;14.530;2024-02-21T04:49:02;29.02;;;8.57;;
66095;SDS011;53861;53.422;14.530;2024-02-21T04:51:30;41.78;;;10.40;;
66095;SDS011;53861;53.422;14.530;2024-02-21T04:53:57;28.63;;;8.35;;
66095;SDS011;53861;53.422;14.530;2024-02-21T04:56:24;34.42;;;9.90;;
66095;SDS011;53861;53.422;14.530;2024-02-21T04:58:53;43.78;;;12.48;;
66095;SDS011;53861;53.422;14.530;2024-02-21T05:01:20;44.08;;;11.98;;
66095;SDS011;53861;53.422;14.530;2024-02-21T05:03:47;46.42;;;12.00;;
66095;SDS011;53861;53.422;14.530;2024-02-21T05:06:15;49.45;;;12.30;;
66095;SDS011;53861;53.422;14.530;2024-02-21T05:08:42;37.65;;;8.13;;
66095;SDS011;53861;53.422;14.530;2024-02-21T05:11:10;46.30;;;12.43;;
66095;SDS011;53861;53.422;14.530;2024-02-21T05:13:37;33.88;;;10.50;;
66095;SDS011;53861;53.422;14.530;2024-02-21T05:16:06;50.63;;;15.13;;
66095;SDS011;53861;53.422;14.530;2024-02-21T05:18:33;38.30;;;11.18;;
66095;SDS011;53861;53.422;14.530;2024-02-21T05:21:00;43.97;;;11.88;;
66095;SDS011;53861;53.422;14.530;2024-02-21T05:23:28;24.48;;;6.18;;
66095;SDS011;53861;53.422;14.530;2024-02-21T05:25:55;36.97;;;11.75;;
66095;SDS011;53861;53.422;14.530;2024-02-21T05:28:22;39.70;;;10.32;;
66095;SDS011;53861;53.422;14.530;2024-02-21T05:30:49;44.25;;;10.95;;
66095;SDS011;53861;53.422;14.530;2024-02-21T05:33:18;37.97;;;11.32;;
66095;SDS011;53861;53.422;14.530;2024-02-21T05:35:47;36.65;;;11.13;;
66095;SDS011;53861;53.422;14.530;2024-02-21T05:38:15;44.00;;;11.48;;
66095;SDS011;53861;53.422;14.530;2024-02-21T05:40:43;36.35;;;11.07;;
66095;SDS011;53861;53.422;14.530;2024-02-21T05:43:11;38.33;;;11.00;;
66095;SDS011;53861;53.422;14.530;2024-02-21T05:45:38;42.83;;;10.90;;
66095;SDS011;53861;53.422;14.530;2024-02-21T05:48:06;42.10;;;11.75;;
66095;SDS011;53861;53.422;14.530;2024-02-21T05:50:35;40.10;;;13.05;;
66095;SDS011;53861;53.422;14.530;2024-02-21T05:53:02;38.70;;;10.55;;
66095;SDS011;53861;53.422;14.530;2024-02-21T05:55:30;43.42;;;13.13;;
66095;SDS011;53861;53.422;14.530;2024-02-21T05:57:57;40.65;;;11.88;;
66095;SDS011;53861;53.422;14.530;2024-02-21T06:00:24;32.55;;;9.30;;
66095;SDS011;53861;53.422;14.530;2024-02-21T06:02:51;42.67;;;12.23;;
66095;SDS011;53861;53.422;14.530;2024-02-21T06:05:19;47.33;;;12.38;;
66095;SDS011;53861;53.422;14.530;2024-02-21T06:07:47;42.20;;;11.90;;
66095;SDS011;53861;53.422;14.530;2024-02-21T06:10:15;47.17;;;15.32;;
66095;SDS011;53861;53.422;14.530;2024-02-21T06:12:42;45.08;;;13.80;;
66095;SDS011;53861;53.422;14.530;2024-02-21T06:15:10;41.15;;;12.90;;
66095;SDS011;53861;53.422;14.530;2024-02-21T06:17:37;41.63;;;13.13;;
66095;SDS011;53861;53.422;14.530;2024-02-21T06:20:05;46.28;;;13.75;;
66095;SDS011;53861;53.422;14.530;2024-02-21T06:22:32;41.88;;;12.52;;
66095;SDS011;53861;53.422;14.530;2024-02-21T06:25:01;46.03;;;14.05;;
66095;SDS011;53861;53.422;14.530;2024-02-21T06:27:28;45.20;;;12.75;;
66095;SDS011;53861;53.422;14.530;2024-02-21T06:29:56;51.28;;;13.20;;
66095;SDS011;53861;53.422;14.530;2024-02-21T06:32:23;53.55;;;14.02;;
66095;SDS011;53861;53.422;14.530;2024-02-21T06:34:50;50.70;;;13.43;;
66095;SDS011;53861;53.422;14.530;2024-02-21T06:37:18;43.88;;;13.52;;
66095;SDS011;53861;53.422;14.530;2024-02-21T06:39:45;53.00;;;15.05;;
66095;SDS011;53861;53.422;14.530;2024-02-21T06:42:14;49.03;;;12.98;;
66095;SDS011;53861;53.422;14.530;2024-02-21T06:44:41;52.42;;;15.80;;
66095;SDS011;53861;53.422;14.530;2024-02-21T06:47:08;46.95;;;14.50;;
66095;SDS011;53861;53.422;14.530;2024-02-21T06:49:35;52.55;;;14.85;;
66095;SDS011;53861;53.422;14.530;2024-02-21T06:52:04;41.00;;;12.68;;
66095;SDS011;53861;53.422;14.530;2024-02-21T06:54:31;55.75;;;15.02;;
66095;SDS011;53861;53.422;14.530;2024-02-21T06:56:58;60.00;;;16.52;;
66095;SDS011;53861;53.422;14.530;2024-02-21T06:59:27;54.25;;;12.65;;
66095;SDS011;53861;53.422;14.530;2024-02-21T07:01:54;64.88;;;16.63;;
66095;SDS011;53861;53.422;14.530;2024-02-21T07:04:22;56.15;;;15.30;;
66095;SDS011;53861;53.422;14.530;2024-02-21T07:06:49;65.70;;;14.77;;
66095;SDS011;53861;53.422;14.530;2024-02-21T07:09:17;60.10;;;16.05;;
66095;SDS011;53861;53.422;14.530;2024-02-21T07:11:44;64.82;;;16.08;;
66095;SDS011;53861;53.422;14.530;2024-02-21T07:14:11;54.22;;;15.45;;
66095;SDS011;53861;53.422;14.530;2024-02-21T07:16:42;56.47;;;15.13;;
66095;SDS011;53861;53.422;14.530;2024-02-21T07:19:09;64.15;;;16.00;;
66095;SDS011;53861;53.422;14.530;2024-02-21T07:21:36;64.35;;;15.75;;
66095;SDS011;53861;53.422;14.530;2024-02-21T07:24:07;60.88;;;15.05;;
66095;SDS011;53861;53.422;14.530;2024-02-21T07:26:34;40.08;;;14.32;;
66095;SDS011;53861;53.422;14.530;2024-02-21T07:29:01;68.55;;;17.38;;
66095;SDS011;53861;53.422;14.530;2024-02-21T07:31:29;56.83;;;16.25;;
66095;SDS011;53861;53.422;14.530;2024-02-21T07:33:57;67.65;;;17.83;;
66095;SDS011;53861;53.422;14.530;2024-02-21T07:36:27;66.40;;;18.33;;
66095;SDS011;53861;53.422;14.530;2024-02-21T07:38:56;66.47;;;14.95;;
66095;SDS011;53861;53.422;14.530;2024-02-21T07:41:23;72.63;;;15.82;;
66095;SDS011;53861;53.422;14.530;2024-02-21T07:43:50;65.60;;;16.25;;
66095;SDS011;53861;53.422;14.530;2024-02-21T07:46:18;62.67;;;14.70;;
66095;SDS011;53861;53.422;14.530;2024-02-21T07:48:45;69.72;;;17.15;;
66095;SDS011;53861;53.422;14.530;2024-02-21T07:51:14;67.68;;;17.50;;
66095;SDS011;53861;53.422;14.530;2024-02-21T07:53:43;58.33;;;16.25;;
66095;SDS011;53861;53.422;14.530;2024-02-21T07:56:11;69.80;;;15.80;;
66095;SDS011;53861;53.422;14.530;2024-02-21T07:58:39;65.32;;;16.65;;
66095;SDS011;53861;53.422;14.530;2024-02-21T08:01:07;63.72;;;15.25;;
66095;SDS011;53861;53.422;14.530;2024-02-21T08:03:34;64.22;;;16.67;;
66095;SDS011;53861;53.422;14.530;2024-02-21T08:06:02;64.40;;;15.85;;
66095;SDS011;53861;53.422;14.530;2024-02-21T08:08:32;79.57;;;17.65;;
66095;SDS011;53861;53.422;14.530;2024-02-21T08:10:59;70.38;;;17.42;;
66095;SDS011;53861;53.422;14.530;2024-02-21T08:13:26;41.65;;;10.80;;
66095;SDS011;53861;53.422;14.530;2024-02-21T08:15:54;79.50;;;18.20;;
66095;SDS011;53861;53.422;14.530;2024-02-21T08:18:25;59.90;;;16.73;;
66095;SDS011;53861;53.422;14.530;2024-02-21T08:20:52;73.15;;;17.23;;
66095;SDS011;53861;53.422;14.530;2024-02-21T08:23:19;62.17;;;16.13;;
66095;SDS011;53861;53.422;14.530;2024-02-21T08:25:51;66.00;;;15.93;;
66095;SDS011;53861;53.422;14.530;2024-02-21T08:28:18;60.40;;;16.50;;
66095;SDS011;53861;53.422;14.530;2024-02-21T08:30:46;60.90;;;16.23;;
66095;SDS011;53861;53.422;14.530;2024-02-21T08:33:14;63.90;;;15.75;;
66095;SDS011;53861;53.422;14.530;2024-02-21T08:35:42;55.42;;;14.95;;
66095;SDS011;53861;53.422;14.530;2024-02-21T08:38:09;59.85;;;15.43;;
66095;SDS011;53861;53.422;14.530;2024-02-21T08:40:37;47.08;;;12.25;;
66095;SDS011;53861;53.422;14.530;2024-02-21T08:43:07;46.97;;;12.85;;
66095;SDS011;53861;53.422;14.530;2024-02-21T08:45:34;56.72;;;14.98;;
66095;SDS011;53861;53.422;14.530;2024-02-21T08:48:02;53.10;;;13.38;;
66095;SDS011;53861;53.422;14.530;2024-02-21T08:50:30;50.80;;;13.77;;
66095;SDS011;53861;53.422;14.530;2024-02-21T08:52:57;36.78;;;10.32;;
66095;SDS011;53861;53.422;14.530;2024-02-21T08:55:24;51.53;;;13.98;;
66095;SDS011;53861;53.422;14.530;2024-02-21T08:57:52;72.88;;;18.05;;
66095;SDS011;53861;53.422;14.530;2024-02-21T09:00:21;58.28;;;14.95;;
66095;SDS011;53861;53.422;14.530;2024-02-21T09:05:21;63.75;;;16.05;;
66095;SDS011;53861;53.422;14.530;2024-02-21T09:07:49;51.45;;;13.98;;
66095;SDS011;53861;53.422;14.530;2024-02-21T09:10:17;56.55;;;14.02;;
66095;SDS011;53861;53.422;14.530;2024-02-21T09:12:44;51.47;;;14.95;;
66095;SDS011;53861;53.422;14.530;2024-02-21T09:15:11;66.13;;;15.90;;
66095;SDS011;53861;53.422;14.530;2024-02-21T09:17:40;55.13;;;15.10;;
66095;SDS011;53861;53.422;14.530;2024-02-21T09:20:08;60.30;;;16.27;;
66095;SDS011;53861;53.422;14.530;2024-02-21T09:22:37;60.70;;;14.88;;
66095;SDS011;53861;53.422;14.530;2024-02-21T09:25:05;70.55;;;18.70;;
66095;SDS011;53861;53.422;14.530;2024-02-21T09:27:33;58.28;;;15.40;;
66095;SDS011;53861;53.422;14.530;2024-02-21T09:30:00;54.22;;;14.30;;
66095;SDS011;53861;53.422;14.530;2024-02-21T09:32:30;65.70;;;17.45;;
66095;SDS011;53861;53.422;14.530;2024-02-21T09:34:59;53.85;;;14.98;;
66095;SDS011;53861;53.422;14.530;2024-02-21T09:37:26;49.63;;;12.43;;
66095;SDS011;53861;53.422;14.530;2024-02-21T09:39:54;67.85;;;17.25;;
66095;SDS011;53861;53.422;14.530;2024-02-21T09:42:21;61.28;;;18.13;;
66095;SDS011;53861;53.422;14.530;2024-02-21T09:44:51;56.83;;;15.80;;
66095;SDS011;53861;53.422;14.530;2024-02-21T09:47:19;53.38;;;15.23;;
66095;SDS011;53861;53.422;14.530;2024-02-21T09:49:51;58.33;;;14.82;;
66095;SDS011;53861;53.422;14.530;2024-02-21T09:52:20;51.00;;;14.20;;
66095;SDS011;53861;53.422;14.530;2024-02-21T09:54:48;57.53;;;15.57;;
66095;SDS011;53861;53.422;14.530;2024-02-21T09:57:18;57.85;;;16.20;;
66095;SDS011;53861;53.422;14.530;2024-02-21T09:59:46;63.88;;;16.92;;
66095;SDS011;53861;53.422;14.530;2024-02-21T10:02:15;51.08;;;14.90;;
66095;SDS011;53861;53.422;14.530;2024-02-21T10:04:43;52.35;;;14.95;;
66095;SDS011;53861;53.422;14.530;2024-02-21T10:07:10;58.70;;;15.65;;
66095;SDS011;53861;53.422;14.530;2024-02-21T10:09:39;52.97;;;12.98;;
66095;SDS011;53861;53.422;14.530;2024-02-21T10:12:08;53.97;;;14.68;;
66095;SDS011;53861;53.422;14.530;2024-02-21T10:14:36;51.45;;;14.55;;
66095;SDS011;53861;53.422;14.530;2024-02-21T10:17:04;51.55;;;14.60;;
66095;SDS011;53861;53.422;14.530;2024-02-21T10:19:35;51.08;;;13.77;;
66095;SDS011;53861;53.422;14.530;2024-02-21T10:22:03;41.75;;;12.05;;
66095;SDS011;53861;53.422;14.530;2024-02-21T10:24:33;45.38;;;12.77;;
66095;SDS011;53861;53.422;14.530;2024-02-21T10:27:05;44.47;;;12.70;;
66095;SDS011;53861;53.422;14.530;2024-02-21T10:29:34;44.00;;;13.40;;
66095;SDS011;53861;53.422;14.530;2024-02-21T10:32:08;38.60;;;11.02;;
66095;SDS011;53861;53.422;14.530;2024-02-21T10:34:37;43.92;;;12.07;;
66095;SDS011;53861;53.422;14.530;2024-02-21T10:37:05;44.25;;;12.50;;
66095;SDS011;53861;53.422;14.530;2024-02-21T10:39:34;42.15;;;12.13;;
66095;SDS011;53861;53.422;14.530;2024-02-21T10:42:04;44.55;;;11.15;;
66095;SDS011;53861;53.422;14.530;2024-02-21T10:44:34;40.83;;;12.43;;
66095;SDS011;53861;53.422;14.530;2024-02-21T10:47:07;36.15;;;11.05;;
66095;SDS011;53861;53.422;14.530;2024-02-21T10:49:36;41.33;;;11.93;;
66095;SDS011;53861;53.422;14.530;2024-02-21T10:52:06;39.00;;;11.65;;
66095;SDS011;53861;53.422;14.530;2024-02-21T10:54:44;25.55;;;8.52;;
66095;SDS011;53861;53.422;14.530;2024-02-21T10:57:13;42.43;;;12.03;;
66095;SDS011;53861;53.422;14.530;2024-02-21T10:59:41;40.40;;;12.07;;
66095;SDS011;53861;53.422;14.530;2024-02-21T11:02:11;43.50;;;13.00;;
66095;SDS011;53861;53.422;14.530;2024-02-21T11:04:38;40.17;;;11.90;;
66095;SDS011;53861;53.422;14.530;2024-02-21T11:07:07;26.13;;;6.75;;
66095;SDS011;53861;53.422;14.530;2024-02-21T11:09:35;26.90;;;6.82;;
66095;SDS011;53861;53.422;14.530;2024-02-21T11:12:02;31.77;;;10.18;;
66095;SDS011;53861;53.422;14.530;2024-02-21T11:14:32;29.83;;;9.60;;
66095;SDS011;53861;53.422;14.530;2024-02-21T11:17:01;35.15;;;11.57;;
66095;SDS011;53861;53.422;14.530;2024-02-21T11:19:31;37.80;;;11.07;;
66095;SDS011;53861;53.422;14.530;2024-02-21T11:21:59;31.23;;;9.45;;
66095;SDS011;53861;53.422;14.530;2024-02-21T11:24:27;33.83;;;10.57;;
66095;SDS011;53861;53.422;14.530;2024-02-21T11:26:55;33.75;;;9.88;;
66095;SDS011;53861;53.422;14.530;2024-02-21T11:29:23;28.83;;;9.23;;
66095;SDS011;53861;53.422;14.530;2024-02-21T11:31:52;29.67;;;9.57;;
66095;SDS011;53861;53.422;14.530;2024-02-21T11:34:20;26.27;;;10.07;;
66095;SDS011;53861;53.422;14.530;2024-02-21T11:36:47;26.35;;;9.48;;
66095;SDS011;53861;53.422;14.530;2024-02-21T11:39:19;27.77;;;9.38;;
66095;SDS011;53861;53.422;14.530;2024-02-21T11:41:47;26.30;;;9.38;;
66095;SDS011;53861;53.422;14.530;2024-02-21T11:44:26;33.60;;;10.48;;
66095;SDS011;53861;53.422;14.530;2024-02-21T11:46:55;26.55;;;9.60;;
66095;SDS011;53861;53.422;14.530;2024-02-21T11:49:24;33.35;;;10.95;;
66095;SDS011;53861;53.422;14.530;2024-02-21T11:51:57;38.08;;;10.60;;
66095;SDS011;53861;53.422;14.530;2024-02-21T11:54:26;31.27;;;10.52;;
66095;SDS011;53861;53.422;14.530;2024-02-21T11:56:53;27.40;;;9.05;;
66095;SDS011;53861;53.422;14.530;2024-02-21T11:59:21;27.73;;;8.27;;
66095;SDS011;53861;53.422;14.530;2024-02-21T12:01:48;22.20;;;8.05;;
66095;SDS011;53861;53.422;14.530;2024-02-21T12:04:19;26.10;;;8.43;;
66095;SDS011;53861;53.422;14.530;2024-02-21T12:06:49;27.58;;;8.40;;
66095;SDS011;53861;53.422;14.530;2024-02-21T12:09:16;31.85;;;9.45;;
66095;SDS011;53861;53.422;14.530;2024-02-21T12:11:44;25.63;;;7.65;;
66095;SDS011;53861;53.422;14.530;2024-02-21T12:14:15;21.33;;;8.10;;
66095;SDS011;53861;53.422;14.530;2024-02-21T12:16:44;23.40;;;8.00;;
66095;SDS011;53861;53.422;14.530;2024-02-21T12:19:14;26.20;;;8.23;;
66095;SDS011;53861;53.422;14.530;2024-02-21T12:21:43;22.45;;;8.30;;
66095;SDS011;53861;53.422;14.530;2024-02-21T12:24:17;22.42;;;8.27;;
66095;SDS011;53861;53.422;14.530;2024-02-21T12:26:47;23.25;;;7.55;;
66095;SDS011;53861;53.422;14.530;2024-02-21T12:29:15;25.10;;;7.40;;
66095;SDS011;53861;53.422;14.530;2024-02-21T12:31:42;21.38;;;7.53;;
66095;SDS011;53861;53.422;14.530;2024-02-21T12:34:09;20.42;;;6.55;;
66095;SDS011;53861;53.422;14.530;2024-02-21T12:36:40;16.25;;;6.22;;
66095;SDS011;53861;53.422;14.530;2024-02-21T12:39:10;24.60;;;7.00;;
66095;SDS011;53861;53.422;14.530;2024-02-21T12:41:37;20.25;;;7.57;;
66095;SDS011;53861;53.422;14.530;2024-02-21T12:44:06;16.52;;;6.28;;
66095;SDS011;53861;53.422;14.530;2024-02-21T12:46:34;17.40;;;7.47;;
66095;SDS011;53861;53.422;14.530;2024-02-21T12:49:01;21.85;;;7.65;;
66095;SDS011;53861;53.422;14.530;2024-02-21T12:51:28;18.17;;;5.75;;
66095;SDS011;53861;53.422;14.530;2024-02-21T12:53:58;23.85;;;6.72;;
66095;SDS011;53861;53.422;14.530;2024-02-21T12:56:26;17.52;;;7.03;;
66095;SDS011;53861;53.422;14.530;2024-02-21T12:58:55;23.10;;;6.97;;
66095;SDS011;53861;53.422;14.530;2024-02-21T13:01:22;15.63;;;5.60;;
66095;SDS011;53861;53.422;14.530;2024-02-21T13:03:50;15.73;;;5.45;;
66095;SDS011;53861;53.422;14.530;2024-02-21T13:06:17;17.88;;;6.00;;
66095;SDS011;53861;53.422;14.530;2024-02-21T13:08:44;13.43;;;5.05;;
66095;SDS011;53861;53.422;14.530;2024-02-21T13:11:12;19.73;;;7.38;;
66095;SDS011;53861;53.422;14.530;2024-02-21T13:13:41;14.05;;;5.60;;
66095;SDS011;53861;53.422;14.530;2024-02-21T13:16:09;18.52;;;5.95;;
66095;SDS011;53861;53.422;14.530;2024-02-21T13:18:37;17.35;;;5.85;;
66095;SDS011;53861;53.422;14.530;2024-02-21T13:21:05;19.17;;;6.57;;
66095;SDS011;53861;53.422;14.530;2024-02-21T13:23:33;18.85;;;5.70;;
66095;SDS011;53861;53.422;14.530;2024-02-21T13:26:00;17.83;;;5.50;;
66095;SDS011;53861;53.422;14.530;2024-02-21T13:28:30;15.15;;;6.25;;
66095;SDS011;53861;53.422;14.530;2024-02-21T13:30:59;18.00;;;6.25;;
66095;SDS011;53861;53.422;14.530;2024-02-21T13:33:26;14.13;;;5.22;;
66095;SDS011;53861;53.422;14.530;2024-02-21T13:35:54;14.65;;;5.50;;
66095;SDS011;53861;53.422;14.530;2024-02-21T13:38:21;17.88;;;6.25;;
66095;SDS011;53861;53.422;14.530;2024-02-21T13:40:49;15.23;;;5.10;;
66095;SDS011;53861;53.422;14.530;2024-02-21T13:43:17;15.98;;;6.18;;
66095;SDS011;53861;53.422;14.530;2024-02-21T13:45:46;15.73;;;5.78;;
66095;SDS011;53861;53.422;14.530;2024-02-21T13:48:24;15.68;;;5.70;;
66095;SDS011;53861;53.422;14.530;2024-02-21T13:50:52;12.30;;;5.00;;
66095;SDS011;53861;53.422;14.530;2024-02-21T13:53:19;16.77;;;5.50;;
66095;SDS011;53861;53.422;14.530;2024-02-21T13:55:48;17.60;;;5.68;;
66095;SDS011;53861;53.422;14.530;2024-02-21T13:58:18;17.33;;;5.20;;
66095;SDS011;53861;53.422;14.530;2024-02-21T14:00:45;13.40;;;5.18;;
66095;SDS011;53861;53.422;14.530;2024-02-21T14:03:12;18.75;;;5.82;;
66095;SDS011;53861;53.422;14.530;2024-02-21T14:05:41;15.68;;;5.90;;
66095;SDS011;53861;53.422;14.530;2024-02-21T14:08:08;16.17;;;6.30;;
66095;SDS011;53861;53.422;14.530;2024-02-21T14:10:36;17.38;;;6.00;;
66095;SDS011;53861;53.422;14.530;2024-02-21T14:13:03;15.57;;;6.18;;
66095;SDS011;53861;53.422;14.530;2024-02-21T14:15:31;17.73;;;5.72;;
66095;SDS011;53861;53.422;14.530;2024-02-21T14:17:58;13.25;;;5.70;;
66095;SDS011;53861;53.422;14.530;2024-02-21T14:20:25;10.90;;;4.47;;